Time;durP1;ratioP1;P1;durP2;ratioP2;P2;SDS_P1;SDS_P2;PMS_P1;PMS_P2;Temp;Humidity;BMP_temperature;BMP_pressure;BME280_temperature;BME280_humidity;BME280_pressure;Samples;Min_cycle;Max_cycle;Signal;HPM_P1;HPM_P2
2023/06/23 00:01:58;;;;;;;9.6;4.5;;;;;;;;;;;;;
2023/06/23 00:04:23;;;;;;;10.5;4.7;;;;;;;;;;;;;
2023/06/23 00:06:49;;;;;;;6.4;4.1;;;;;;;;;;;;;
2023/06/23 00:09:15;;;;;;;9.4;3.8;;;;;;;;;;;;;
2023/06/23 00:11:40;;;;;;;10.7;3.8;;;;;;;;;;;;;
2023/06/23 00:14:06;;;;;;;8.7;3.8;;;;;;;;;;;;;
2023/06/23 00:16:30;;;;;;;6.3;3.6;;;;;;;;;;;;;
2023/06/23 00:18:56;;;;;;;12;4.1;;;;;;;;;;;;;
2023/06/23 00:21:21;;;;;;;10.3;4.2;;;;;;;;;;;;;
2023/06/23 00:23:46;;;;;;;9.3;4.1;;;;;;;;;;;;;
2023/06/23 00:26:11;;;;;;;9.1;4.3;;;;;;;;;;;;;
2023/06/23 00:28:36;;;;;;;14.2;5.6;;;;;;;;;;;;;
2023/06/23 00:31:01;;;;;;;14.4;5.4;;;;;;;;;;;;;
2023/06/23 00:33:27;;;;;;;9.9;4.9;;;;;;;;;;;;;
2023/06/23 00:35:52;;;;;;;11.4;4.5;;;;;;;;;;;;;
2023/06/23 00:38:19;;;;;;;12.7;5;;;;;;;;;;;;;
2023/06/23 00:40:44;;;;;;;9.3;4.4;;;;;;;;;;;;;
2023/06/23 00:43:09;;;;;;;10;4.3;;;;;;;;;;;;;
2023/06/23 00:45:34;;;;;;;10.5;4;;;;;;;;;;;;;
2023/06/23 00:47:59;;;;;;;8;3.9;;;;;;;;;;;;;
2023/06/23 00:50:26;;;;;;;11.5;3.9;;;;;;;;;;;;;
2023/06/23 00:52:51;;;;;;;8.6;3.7;;;;;;;;;;;;;
2023/06/23 00:55:17;;;;;;;6.5;3.5;;;;;;;;;;;;;
2023/06/23 00:57:42;;;;;;;9.7;3.7;;;;;;;;;;;;;
2023/06/23 01:00:13;;;;;;;10.4;3.7;;;;;;;;;;;;;
2023/06/23 01:02:32;;;;;;;5.9;3.8;;;;;;;;;;;;;
2023/06/23 01:05:00;;;;;;;8.7;3.9;;;;;;;;;;;;;
2023/06/23 01:07:26;;;;;;;9.2;3.4;;;;;;;;;;;;;
2023/06/23 01:09:49;;;;;;;7.5;3.6;;;;;;;;;;;;;
2023/06/23 01:12:14;;;;;;;9.4;3.4;;;;;;;;;;;;;
2023/06/23 01:14:41;;;;;;;8.7;3.2;;;;;;;;;;;;;
2023/06/23 01:17:06;;;;;;;8;3.7;;;;;;;;;;;;;
2023/06/23 01:19:32;;;;;;;7.5;3.4;;;;;;;;;;;;;
2023/06/23 01:21:57;;;;;;;6.3;3.3;;;;;;;;;;;;;
2023/06/23 01:24:22;;;;;;;8.3;3.4;;;;;;;;;;;;;
2023/06/23 01:26:47;;;;;;;6.8;3;;;;;;;;;;;;;
2023/06/23 01:29:12;;;;;;;7.1;3.4;;;;;;;;;;;;;
2023/06/23 01:31:38;;;;;;;8.9;3.4;;;;;;;;;;;;;
2023/06/23 01:34:03;;;;;;;7.8;3.4;;;;;;;;;;;;;
2023/06/23 01:36:28;;;;;;;7.7;3.7;;;;;;;;;;;;;
2023/06/23 01:38:54;;;;;;;10.2;3.9;;;;;;;;;;;;;
2023/06/23 01:41:18;;;;;;;11.6;4.3;;;;;;;;;;;;;
2023/06/23 01:43:45;;;;;;;9.7;3.5;;;;;;;;;;;;;
2023/06/23 01:46:10;;;;;;;7.2;3.2;;;;;;;;;;;;;
2023/06/23 01:48:35;;;;;;;5.2;2.7;;;;;;;;;;;;;
2023/06/23 01:51:02;;;;;;;6.8;2.9;;;;;;;;;;;;;
2023/06/23 01:53:26;;;;;;;5;2.5;;;;;;;;;;;;;
2023/06/23 01:55:51;;;;;;;6.6;2.8;;;;;;;;;;;;;
2023/06/23 01:58:26;;;;;;;5.2;2.4;;;;;;;;;;;;;
2023/06/23 02:00:52;;;;;;;4.1;2.8;;;;;;;;;;;;;
2023/06/23 02:03:17;;;;;;;6.4;2.6;;;;;;;;;;;;;
2023/06/23 02:05:46;;;;;;;4.7;2.4;;;;;;;;;;;;;
2023/06/23 02:08:10;;;;;;;8.4;3.2;;;;;;;;;;;;;
2023/06/23 02:10:35;;;;;;;6.6;2.9;;;;;;;;;;;;;
2023/06/23 02:13:00;;;;;;;6.7;3.2;;;;;;;;;;;;;
2023/06/23 02:15:26;;;;;;;6.8;3;;;;;;;;;;;;;
2023/06/23 02:17:51;;;;;;;7.4;3.2;;;;;;;;;;;;;
2023/06/23 02:20:18;;;;;;;6.2;2.8;;;;;;;;;;;;;
2023/06/23 02:22:43;;;;;;;5.7;3.1;;;;;;;;;;;;;
2023/06/23 02:25:09;;;;;;;4.5;2.7;;;;;;;;;;;;;
2023/06/23 02:27:34;;;;;;;5.6;2.7;;;;;;;;;;;;;
2023/06/23 02:30:00;;;;;;;5.6;3.1;;;;;;;;;;;;;
2023/06/23 02:32:25;;;;;;;5.8;2.8;;;;;;;;;;;;;
2023/06/23 02:34:50;;;;;;;5;2.6;;;;;;;;;;;;;
2023/06/23 02:37:16;;;;;;;5.2;2.4;;;;;;;;;;;;;
2023/06/23 02:39:40;;;;;;;7.2;2.9;;;;;;;;;;;;;
2023/06/23 02:42:05;;;;;;;4.3;2.5;;;;;;;;;;;;;
2023/06/23 02:44:31;;;;;;;5;2.5;;;;;;;;;;;;;
2023/06/23 02:46:55;;;;;;;4.4;2.3;;;;;;;;;;;;;
2023/06/23 02:49:20;;;;;;;4.5;2;;;;;;;;;;;;;
2023/06/23 02:51:46;;;;;;;5.2;2.7;;;;;;;;;;;;;
2023/06/23 02:54:11;;;;;;;3.3;1.8;;;;;;;;;;;;;
2023/06/23 02:56:36;;;;;;;4.6;2.1;;;;;;;;;;;;;
2023/06/23 02:59:01;;;;;;;3.7;1.9;;;;;;;;;;;;;
2023/06/23 03:01:26;;;;;;;4.3;2;;;;;;;;;;;;;
2023/06/23 03:03:51;;;;;;;4.4;2.1;;;;;;;;;;;;;
2023/06/23 03:06:17;;;;;;;4.2;2.1;;;;;;;;;;;;;
2023/06/23 03:08:41;;;;;;;4.3;2.4;;;;;;;;;;;;;
2023/06/23 03:11:07;;;;;;;3;2;;;;;;;;;;;;;
2023/06/23 03:13:33;;;;;;;4.4;2;;;;;;;;;;;;;
2023/06/23 03:15:58;;;;;;;3.5;2.1;;;;;;;;;;;;;
2023/06/23 03:18:24;;;;;;;2.8;2.2;;;;;;;;;;;;;
2023/06/23 03:20:49;;;;;;;4.3;1.8;;;;;;;;;;;;;
2023/06/23 03:23:14;;;;;;;5;2.1;;;;;;;;;;;;;
2023/06/23 03:25:41;;;;;;;5.4;2.3;;;;;;;;;;;;;
2023/06/23 03:28:05;;;;;;;3;2;;;;;;;;;;;;;
2023/06/23 03:30:31;;;;;;;4.4;1.9;;;;;;;;;;;;;
2023/06/23 03:32:57;;;;;;;4;2.2;;;;;;;;;;;;;
2023/06/23 03:35:23;;;;;;;3.1;2.1;;;;;;;;;;;;;
2023/06/23 03:37:48;;;;;;;3.1;1.9;;;;;;;;;;;;;
2023/06/23 03:40:13;;;;;;;4.4;2.1;;;;;;;;;;;;;
2023/06/23 03:42:38;;;;;;;3.8;2;;;;;;;;;;;;;
2023/06/23 03:45:03;;;;;;;3.6;1.9;;;;;;;;;;;;;
2023/06/23 03:47:28;;;;;;;4;1.8;;;;;;;;;;;;;
2023/06/23 03:49:54;;;;;;;3.1;2;;;;;;;;;;;;;
2023/06/23 03:52:19;;;;;;;4.1;2.1;;;;;;;;;;;;;
2023/06/23 03:54:47;;;;;;;3.8;2;;;;;;;;;;;;;
2023/06/23 03:57:10;;;;;;;3.2;2.2;;;;;;;;;;;;;
2023/06/23 03:59:37;;;;;;;4;1.8;;;;;;;;;;;;;
2023/06/23 04:02:58;;;;;;;3.4;1.7;;;;;;;18.36;96.85156;939.8742;;;;
2023/06/23 04:05:23;;;;;;;4;1.7;;;;;;;18.21;96.21582;939.9281;;;;
2023/06/23 04:07:51;;;;;;;3.3;1.8;;;;;;;18.2;94.67969;939.9952;;;;
2023/06/23 04:10:16;;;;;;;2.9;1.8;;;;;;;18.08;95.28125;940.0165;;;;
2023/06/23 04:12:45;;;;;;;2.8;1.6;;;;;;;18.02;94.74512;940.057;;;;
2023/06/23 04:15:10;;;;;;;3;1.8;;;;;;;17.7;97.36816;939.9608;;;;
2023/06/23 04:17:35;;;;;;;2.2;1.6;;;;;;;17.75;96.85938;940.0083;;;;
2023/06/23 04:20:04;;;;;;;3;1.5;;;;;;;17.86;97.64941;940.0206;;;;
2023/06/23 04:22:29;;;;;;;2.1;1.5;;;;;;;17.89;98.42188;940.0524;;;;
2023/06/23 04:24:55;;;;;;;3.6;1.6;;;;;;;17.86;98.54199;940.0385;;;;
2023/06/23 04:27:20;;;;;;;4.5;1.5;;;;;;;17.99;97.80566;940.0225;;;;
2023/06/23 04:29:45;;;;;;;2.4;1.6;;;;;;;18.13;96.79004;940.0859;;;;
2023/06/23 04:32:10;;;;;;;3.1;1.9;;;;;;;18.26;95.0166;940.1356;;;;
2023/06/23 04:34:35;;;;;;;2.1;1.5;;;;;;;18.27;95.64844;940.1853;;;;
2023/06/23 04:37:01;;;;;;;2.3;1.8;;;;;;;18.29;96.50977;940.2319;;;;
2023/06/23 04:39:27;;;;;;;1.5;1.3;;;;;;;18.36;96.21387;940.1539;;;;
2023/06/23 04:41:53;;;;;;;1.7;1.6;;;;;;;18.24;97;940.2367;;;;
2023/06/23 04:44:17;;;;;;;3.1;1.8;;;;;;;18.34;96.52246;940.2092;;;;
2023/06/23 04:46:42;;;;;;;3.3;1.8;;;;;;;18.45;96.43164;940.2808;;;;
2023/06/23 04:49:08;;;;;;;2.6;1.4;;;;;;;18.55;94.63867;940.3387;;;;
2023/06/23 04:51:32;;;;;;;2.8;1.6;;;;;;;18.69;94.12305;940.3214;;;;
2023/06/23 04:53:59;;;;;;;3.7;1.5;;;;;;;18.79;92.80469;940.4132;;;;
2023/06/23 04:56:25;;;;;;;3.5;1.8;;;;;;;18.8;92.94629;940.493;;;;
2023/06/23 04:58:49;;;;;;;2.3;1.7;;;;;;;18.81;92.35449;940.4919;;;;
2023/06/23 05:01:17;;;;;;;2.9;1.8;;;;;;;18.83;93.34961;940.5089;;;;
2023/06/23 05:03:42;;;;;;;3.2;1.9;;;;;;;18.84;93.08398;940.6273;;;;
2023/06/23 05:06:12;;;;;;;2.2;1.6;;;;;;;18.82;93.05469;940.6096;;;;
2023/06/23 05:08:37;;;;;;;2.9;2.3;;;;;;;18.66;94.51074;940.7011;;;;
2023/06/23 05:11:06;;;;;;;4.1;2.6;;;;;;;18.69;95.7168;940.7587;;;;
2023/06/23 05:13:31;;;;;;;4.8;2.6;;;;;;;18.76;94.3584;940.7447;;;;
2023/06/23 05:15:58;;;;;;;3.1;2;;;;;;;18.85;94.44727;940.8279;;;;
2023/06/23 05:18:23;;;;;;;2.9;1.8;;;;;;;18.84;95.16699;940.8006;;;;
2023/06/23 05:20:51;;;;;;;2.5;1.5;;;;;;;18.82;95.5332;940.8566;;;;
2023/06/23 05:24:17;;;;;;;4.9;1.8;;;;;;;18.74;94.92383;940.8708;;;;
2023/06/23 05:26:42;;;;;;;2.7;1.8;;;;;;;18.76;95.75391;940.8761;;;;
2023/06/23 05:29:08;;;;;;;3.2;1.9;;;;;;;18.65;95.41699;940.8667;;;;
2023/06/23 05:31:33;;;;;;;3;1.6;;;;;;;18.6;96.90527;940.8969;;;;
2023/06/23 05:34:01;;;;;;;2.3;1.7;;;;;;;18.56;97.37402;940.9781;;;;
2023/06/23 05:36:26;;;;;;;2;1.5;;;;;;;18.4;98.48926;940.962;;;;
2023/06/23 05:38:56;;;;;;;3.5;1.9;;;;;;;18.45;97.41797;941.1108;;;;
2023/06/23 05:41:24;;;;;;;2.2;1.6;;;;;;;18.59;96.44727;941.1995;;;;
2023/06/23 05:43:49;;;;;;;2.5;1.9;;;;;;;18.67;95.21094;941.2996;;;;
2023/06/23 05:46:18;;;;;;;3.5;1.8;;;;;;;18.73;95.15527;941.3147;;;;
2023/06/23 05:48:43;;;;;;;2;1.7;;;;;;;18.71;94.3584;941.491;;;;
2023/06/23 05:51:09;;;;;;;2.1;1.9;;;;;;;18.66;95.11621;941.5458;;;;
2023/06/23 05:53:34;;;;;;;4.2;1.9;;;;;;;18.55;96.0459;941.68;;;;
2023/06/23 05:55:59;;;;;;;3.1;1.8;;;;;;;18.57;95.39648;941.7967;;;;
2023/06/23 05:58:26;;;;;;;3;2.1;;;;;;;18.53;96.24023;941.9457;;;;
2023/06/23 06:00:51;;;;;;;3;2.3;;;;;;;18.49;97.83496;942.0689;;;;
2023/06/23 06:03:16;;;;;;;3.5;2.1;;;;;;;18.56;97.38574;942.101;;;;
2023/06/23 06:05:45;;;;;;;4.2;2.1;;;;;;;18.54;96.37012;942.1512;;;;
2023/06/23 06:08:09;;;;;;;3.3;2.2;;;;;;;18.5;96.87402;942.218;;;;
2023/06/23 06:10:34;;;;;;;3.4;2.2;;;;;;;18.54;97.28906;942.2117;;;;
2023/06/23 06:12:59;;;;;;;4.6;2.4;;;;;;;18.56;97.72266;942.301;;;;
2023/06/23 06:15:24;;;;;;;3.8;2.2;;;;;;;18.48;97.69336;942.2933;;;;
2023/06/23 06:17:49;;;;;;;3.5;2.6;;;;;;;18.5;98.08105;942.3591;;;;
2023/06/23 06:20:17;;;;;;;3.9;2;;;;;;;18.51;97.83887;942.4341;;;;
2023/06/23 06:22:42;;;;;;;2.8;1.6;;;;;;;18.53;96.40234;942.4998;;;;
2023/06/23 06:25:13;;;;;;;2.3;1.6;;;;;;;18.62;96.83008;942.5061;;;;
2023/06/23 06:27:39;;;;;;;3.6;2;;;;;;;18.76;97.34766;942.5035;;;;
2023/06/23 06:30:05;;;;;;;2.9;2;;;;;;;18.73;96.86328;942.4927;;;;
2023/06/23 06:32:31;;;;;;;3;1.7;;;;;;;18.8;96.9043;942.3253;;;;
2023/06/23 06:34:57;;;;;;;2.9;1.8;;;;;;;18.86;95.74121;942.3498;;;;
2023/06/23 06:37:23;;;;;;;4.8;2.4;;;;;;;18.95;95.86523;942.3458;;;;
2023/06/23 06:39:47;;;;;;;2.3;1.6;;;;;;;18.91;94.77539;942.369;;;;
2023/06/23 06:42:12;;;;;;;2.2;1.4;;;;;;;19.05;95.04883;942.3323;;;;
2023/06/23 06:44:37;;;;;;;2.5;1.7;;;;;;;19.16;93.02246;942.3427;;;;
2023/06/23 06:47:04;;;;;;;2.1;1.4;;;;;;;19.26;94.54785;942.2838;;;;
2023/06/23 06:49:29;;;;;;;2.9;1.6;;;;;;;19.43;93.65039;942.303;;;;
2023/06/23 06:51:55;;;;;;;2;1.4;;;;;;;19.46;94.01953;942.2587;;;;
2023/06/23 06:54:20;;;;;;;1.7;1.3;;;;;;;19.65;91.12207;942.3738;;;;
2023/06/23 06:56:46;;;;;;;1.6;1.2;;;;;;;19.77;88.99805;942.3853;;;;
2023/06/23 06:59:11;;;;;;;2.1;1.3;;;;;;;19.64;88.3457;942.3981;;;;
2023/06/23 07:01:57;;;;;;;1.4;1.2;;;;;;;19.67;88.07129;942.3661;;;;
2023/06/23 07:04:22;;;;;;;2.2;1.5;;;;;;;19.57;88.59863;942.5034;;;;
2023/06/23 07:06:47;;;;;;;3.1;1.3;;;;;;;19.44;88.80664;942.5587;;;;
2023/06/23 07:09:12;;;;;;;1.6;1.2;;;;;;;19.57;89.28711;942.56;;;;
2023/06/23 07:11:37;;;;;;;1.8;1.2;;;;;;;19.47;89.3252;942.6406;;;;
2023/06/23 07:14:03;;;;;;;1.5;1;;;;;;;19.28;90.4043;942.684;;;;
2023/06/23 07:16:33;;;;;;;2.5;1.3;;;;;;;19.01;90.64063;942.7452;;;;
2023/06/23 07:18:53;;;;;;;1.9;1.2;;;;;;;18.89;90.62598;942.7769;;;;
2023/06/23 07:21:18;;;;;;;1.7;1.2;;;;;;;18.97;90.95703;942.7692;;;;
2023/06/23 07:23:43;;;;;;;2.5;1.4;;;;;;;18.93;92.97656;942.7916;;;;
2023/06/23 07:26:08;;;;;;;2.2;1.4;;;;;;;18.91;93.55273;942.9348;;;;
2023/06/23 07:28:35;;;;;;;4.3;1.4;;;;;;;18.98;92.95117;943.0225;;;;
2023/06/23 07:31:00;;;;;;;2;1.4;;;;;;;18.92;92.66992;943.0742;;;;
2023/06/23 07:33:27;;;;;;;2.4;1.7;;;;;;;18.86;93.08789;943.105;;;;
2023/06/23 07:35:53;;;;;;;4.4;1.8;;;;;;;18.9;93.90039;943.2239;;;;
2023/06/23 07:38:19;;;;;;;2.2;1.3;;;;;;;18.81;93.69238;943.3097;;;;
2023/06/23 07:40:44;;;;;;;4;1.8;;;;;;;18.74;94.43359;943.3638;;;;
2023/06/23 07:43:10;;;;;;;1.8;1.3;;;;;;;18.5;95.66211;943.3027;;;;
2023/06/23 07:45:35;;;;;;;4.3;1.8;;;;;;;18.22;95.46191;943.429;;;;
2023/06/23 07:48:01;;;;;;;1.4;1.3;;;;;;;18.08;91.67871;943.3331;;;;
2023/06/23 07:50:27;;;;;;;1.4;1.3;;;;;;;17.92;90.85645;943.3949;;;;
2023/06/23 07:52:52;;;;;;;1.3;1.2;;;;;;;18.11;93.5332;943.4818;;;;
2023/06/23 07:55:18;;;;;;;1.6;1.3;;;;;;;18.06;95.55469;943.5203;;;;
2023/06/23 07:57:44;;;;;;;1.6;1.2;;;;;;;18;95.77539;943.4053;;;;
2023/06/23 08:00:09;;;;;;;4.9;1.4;;;;;;;18.27;95.81055;943.5198;;;;
2023/06/23 08:02:38;;;;;;;2.8;1.6;;;;;;;18.56;96.94336;943.6172;;;;
2023/06/23 08:05:03;;;;;;;1.6;1.2;;;;;;;18.69;94.77441;943.7356;;;;
2023/06/23 08:07:29;;;;;;;4.1;1.3;;;;;;;18.86;95.27539;943.7983;;;;
2023/06/23 08:09:54;;;;;;;1.5;1.2;;;;;;;18.96;94.42383;943.7921;;;;
2023/06/23 08:12:21;;;;;;;1.5;1.2;;;;;;;19.02;91.82813;943.7686;;;;
2023/06/23 08:15:01;;;;;;;3.4;1.7;;;;;;;18.7;84.14258;943.7864;;;;
2023/06/23 08:17:11;;;;;;;2.8;2.3;;;;;;;18.41;83.21484;943.9084;;;;
2023/06/23 08:19:37;;;;;;;4.7;2.8;;;;;;;18.31;78.47559;943.9725;;;;
2023/06/23 08:22:05;;;;;;;4.3;2.9;;;;;;;18.44;76.80371;943.9914;;;;
2023/06/23 08:24:30;;;;;;;4.8;2.9;;;;;;;18.44;85.69824;944.0623;;;;
2023/06/23 08:26:58;;;;;;;4.2;2.9;;;;;;;18.32;79.35059;944.0981;;;;
2023/06/23 08:29:23;;;;;;;3.8;2.7;;;;;;;18.08;80.42383;944.1713;;;;
2023/06/23 08:31:48;;;;;;;4.3;3.2;;;;;;;17.83;81.52637;944.2145;;;;
2023/06/23 08:34:13;;;;;;;5.5;3.5;;;;;;;17.9;83.71191;944.1928;;;;
2023/06/23 08:36:41;;;;;;;4.2;3.5;;;;;;;17.92;83.14648;944.1847;;;;
2023/06/23 08:39:08;;;;;;;4.6;3.3;;;;;;;18.03;83.14355;944.2097;;;;
2023/06/23 08:41:33;;;;;;;4.8;3.6;;;;;;;;;;;;;
2023/06/23 08:43:57;;;;;;;4.9;3.5;;;;;;;;;;;;;
2023/06/23 08:46:22;;;;;;;5.3;4;;;;;;;;;;;;;
2023/06/23 08:48:48;;;;;;;4.7;3.7;;;;;;;;;;;;;
2023/06/23 08:51:13;;;;;;;4.3;3.4;;;;;;;;;;;;;
2023/06/23 08:53:38;;;;;;;4.4;3.3;;;;;;;;;;;;;
2023/06/23 08:56:03;;;;;;;4.7;3.6;;;;;;;;;;;;;
2023/06/23 08:58:29;;;;;;;5.5;3.8;;;;;;;;;;;;;
2023/06/23 09:00:54;;;;;;;5.4;4.1;;;;;;;;;;;;;
2023/06/23 09:03:19;;;;;;;6.3;4.1;;;;;;;;;;;;;
2023/06/23 09:05:44;;;;;;;8.9;4.8;;;;;;;;;;;;;
2023/06/23 09:08:09;;;;;;;5.7;4.3;;;;;;;;;;;;;
2023/06/23 09:10:35;;;;;;;5.5;4.1;;;;;;;;;;;;;
2023/06/23 09:13:00;;;;;;;7.8;4.6;;;;;;;;;;;;;
2023/06/23 09:15:25;;;;;;;6.5;4.4;;;;;;;;;;;;;
2023/06/23 09:17:50;;;;;;;5.8;4.2;;;;;;;;;;;;;
2023/06/23 09:20:16;;;;;;;6.5;4.9;;;;;;;;;;;;;
2023/06/23 09:22:41;;;;;;;7.2;4.7;;;;;;;;;;;;;
2023/06/23 09:25:06;;;;;;;6.5;4.9;;;;;;;;;;;;;
2023/06/23 09:27:32;;;;;;;5.7;4.1;;;;;;;;;;;;;
2023/06/23 09:29:57;;;;;;;5.5;4.1;;;;;;;;;;;;;
2023/06/23 09:32:24;;;;;;;5.6;4.2;;;;;;;;;;;;;
2023/06/23 09:34:49;;;;;;;4.7;3.9;;;;;;;;;;;;;
2023/06/23 09:37:16;;;;;;;5.2;4;;;;;;;;;;;;;
2023/06/23 09:39:39;;;;;;;4.8;3.7;;;;;;;;;;;;;
2023/06/23 09:42:04;;;;;;;5.7;3.9;;;;;;;;;;;;;
2023/06/23 09:44:30;;;;;;;5;4.2;;;;;;;;;;;;;
2023/06/23 09:46:55;;;;;;;6.1;4.4;;;;;;;;;;;;;
2023/06/23 09:49:20;;;;;;;5.3;4.3;;;;;;;;;;;;;
2023/06/23 09:51:45;;;;;;;6.1;4.2;;;;;;;;;;;;;
2023/06/23 09:54:12;;;;;;;6;3.9;;;;;;;;;;;;;
2023/06/23 09:56:37;;;;;;;4.9;3.8;;;;;;;;;;;;;
2023/06/23 09:59:02;;;;;;;5.6;4.3;;;;;;;;;;;;;
2023/06/23 10:01:27;;;;;;;4.9;4.1;;;;;;;;;;;;;
2023/06/23 10:03:52;;;;;;;6.5;4.4;;;;;;;;;;;;;
2023/06/23 10:06:19;;;;;;;4.8;4.2;;;;;;;;;;;;;
2023/06/23 10:08:44;;;;;;;7.7;4.5;;;;;;;;;;;;;
2023/06/23 10:11:09;;;;;;;6.2;4.3;;;;;;;;;;;;;
2023/06/23 10:13:34;;;;;;;7.2;4.8;;;;;;;;;;;;;
2023/06/23 10:16:00;;;;;;;5.5;4.8;;;;;;;;;;;;;
2023/06/23 10:18:25;;;;;;;5.7;4.8;;;;;;;;;;;;;
2023/06/23 10:20:50;;;;;;;6.4;4.8;;;;;;;;;;;;;
2023/06/23 10:23:16;;;;;;;6.5;5.3;;;;;;;;;;;;;
2023/06/23 10:25:41;;;;;;;6.4;4.9;;;;;;;;;;;;;
2023/06/23 10:28:06;;;;;;;6.5;4.9;;;;;;;;;;;;;
2023/06/23 10:30:31;;;;;;;7.8;4.9;;;;;;;;;;;;;
2023/06/23 10:32:56;;;;;;;8.4;5.4;;;;;;;;;;;;;
2023/06/23 10:35:23;;;;;;;6;4.7;;;;;;;;;;;;;
2023/06/23 10:37:48;;;;;;;7.5;5.5;;;;;;;;;;;;;
2023/06/23 10:40:13;;;;;;;7.7;5.9;;;;;;;;;;;;;
2023/06/23 10:42:38;;;;;;;6.7;5;;;;;;;;;;;;;
2023/06/23 10:45:03;;;;;;;6.9;5.2;;;;;;;;;;;;;
2023/06/23 10:47:28;;;;;;;6.3;4.8;;;;;;;;;;;;;
2023/06/23 10:49:53;;;;;;;8.2;4.9;;;;;;;;;;;;;
2023/06/23 10:52:18;;;;;;;6.9;5.1;;;;;;;;;;;;;
2023/06/23 10:54:44;;;;;;;5.4;4.6;;;;;;;;;;;;;
2023/06/23 10:57:09;;;;;;;4.8;4;;;;;;;;;;;;;
2023/06/23 10:59:34;;;;;;;6.4;4.6;;;;;;;;;;;;;
2023/06/23 11:01:59;;;;;;;6.8;4.7;;;;;;;;;;;;;
2023/06/23 11:04:24;;;;;;;5.5;4.5;;;;;;;;;;;;;
2023/06/23 11:06:49;;;;;;;4;3.6;;;;;;;;;;;;;
2023/06/23 11:09:14;;;;;;;5.5;4.1;;;;;;;;;;;;;
2023/06/23 11:11:40;;;;;;;5.1;4;;;;;;;;;;;;;
2023/06/23 11:14:05;;;;;;;5.2;3.9;;;;;;;;;;;;;
2023/06/23 11:16:30;;;;;;;5.1;3.9;;;;;;;;;;;;;
2023/06/23 11:18:57;;;;;;;4.6;3.8;;;;;;;;;;;;;
2023/06/23 11:21:20;;;;;;;4.7;3.7;;;;;;;;;;;;;
2023/06/23 11:23:45;;;;;;;4.4;3.9;;;;;;;;;;;;;
2023/06/23 11:26:10;;;;;;;4.9;4.2;;;;;;;;;;;;;
2023/06/23 11:28:36;;;;;;;5;4.2;;;;;;;;;;;;;
2023/06/23 11:31:00;;;;;;;5.4;4.1;;;;;;;;;;;;;
2023/06/23 11:33:26;;;;;;;4.6;4;;;;;;;;;;;;;
2023/06/23 11:35:52;;;;;;;4.8;4.1;;;;;;;;;;;;;
2023/06/23 11:38:17;;;;;;;5.1;3.8;;;;;;;;;;;;;
2023/06/23 11:40:42;;;;;;;5.5;4.1;;;;;;;;;;;;;
2023/06/23 11:43:07;;;;;;;5.1;4.1;;;;;;;;;;;;;
2023/06/23 11:45:33;;;;;;;4.9;3.9;;;;;;;;;;;;;
2023/06/23 11:47:58;;;;;;;5.5;4.6;;;;;;;;;;;;;
2023/06/23 11:50:23;;;;;;;4.9;3.9;;;;;;;;;;;;;
2023/06/23 11:52:48;;;;;;;4.9;4.2;;;;;;;;;;;;;
2023/06/23 11:55:18;;;;;;;5.4;4.2;;;;;;;;;;;;;
2023/06/23 11:57:43;;;;;;;5.3;4.3;;;;;;;;;;;;;
2023/06/23 12:00:11;;;;;;;6.3;4.1;;;;;;;;;;;;;
2023/06/23 12:02:33;;;;;;;7.3;4.5;;;;;;;;;;;;;
2023/06/23 12:04:59;;;;;;;5.5;4.9;;;;;;;;;;;;;
2023/06/23 12:07:28;;;;;;;5.1;4.2;;;;;;;;;;;;;
2023/06/23 12:09:49;;;;;;;6.2;4.7;;;;;;;;;;;;;
2023/06/23 12:12:16;;;;;;;5.7;4.4;;;;;;;;;;;;;
2023/06/23 12:14:42;;;;;;;4.3;3.9;;;;;;;;;;;;;
2023/06/23 12:17:07;;;;;;;5.6;4.4;;;;;;;;;;;;;
2023/06/23 12:19:32;;;;;;;5;4.5;;;;;;;;;;;;;
2023/06/23 12:21:58;;;;;;;4.3;3.9;;;;;;;;;;;;;
2023/06/23 12:24:23;;;;;;;5;4.5;;;;;;;;;;;;;
2023/06/23 12:26:48;;;;;;;6.1;4.6;;;;;;;;;;;;;
2023/06/23 12:29:13;;;;;;;5.5;4.3;;;;;;;;;;;;;
2023/06/23 12:31:39;;;;;;;4.6;4.1;;;;;;;;;;;;;
2023/06/23 12:34:04;;;;;;;6.7;4.3;;;;;;;;;;;;;
2023/06/23 12:36:30;;;;;;;4.7;4;;;;;;;;;;;;;
2023/06/23 12:38:55;;;;;;;5.8;4.4;;;;;;;;;;;;;
2023/06/23 12:41:20;;;;;;;5;3.8;;;;;;;;;;;;;
2023/06/23 12:43:46;;;;;;;5.8;4.5;;;;;;;;;;;;;
2023/06/23 12:46:11;;;;;;;6;4.6;;;;;;;;;;;;;
2023/06/23 12:48:37;;;;;;;6.2;4.3;;;;;;;;;;;;;
2023/06/23 12:51:01;;;;;;;4.7;4.2;;;;;;;;;;;;;
2023/06/23 12:53:27;;;;;;;5.6;4.3;;;;;;;;;;;;;
2023/06/23 12:55:52;;;;;;;4.8;4.2;;;;;;;;;;;;;
2023/06/23 12:58:17;;;;;;;6.3;4.6;;;;;;;;;;;;;
2023/06/23 13:00:43;;;;;;;8.9;4.3;;;;;;;;;;;;;
2023/06/23 13:03:13;;;;;;;5.1;4.1;;;;;;;;;;;;;
2023/06/23 13:05:33;;;;;;;5.5;4.5;;;;;;;;;;;;;
2023/06/23 13:07:58;;;;;;;5.1;3.9;;;;;;;;;;;;;
2023/06/23 13:10:23;;;;;;;5.3;4;;;;;;;;;;;;;
2023/06/23 13:12:48;;;;;;;4.9;4.4;;;;;;;;;;;;;
2023/06/23 13:15:13;;;;;;;5;4.5;;;;;;;;;;;;;
2023/06/23 13:17:40;;;;;;;5.9;4.4;;;;;;;;;;;;;
2023/06/23 13:20:06;;;;;;;5.3;4.5;;;;;;;;;;;;;
2023/06/23 13:22:30;;;;;;;6.1;4.4;;;;;;;;;;;;;
2023/06/23 13:24:57;;;;;;;5.3;4.5;;;;;;;;;;;;;
2023/06/23 13:27:21;;;;;;;6.2;4.5;;;;;;;;;;;;;
2023/06/23 13:29:46;;;;;;;6.9;4.7;;;;;;;;;;;;;
2023/06/23 13:32:13;;;;;;;6.1;4.5;;;;;;;;;;;;;
2023/06/23 13:34:37;;;;;;;6.4;5.2;;;;;;;;;;;;;
2023/06/23 13:37:02;;;;;;;6.6;4.5;;;;;;;;;;;;;
2023/06/23 13:39:29;;;;;;;5.3;4.4;;;;;;;;;;;;;
2023/06/23 13:41:54;;;;;;;5.1;4;;;;;;;;;;;;;
2023/06/23 13:44:21;;;;;;;4.8;4.3;;;;;;;;;;;;;
2023/06/23 13:46:46;;;;;;;5.1;4.5;;;;;;;;;;;;;
2023/06/23 13:49:12;;;;;;;6.1;4.5;;;;;;;;;;;;;
2023/06/23 13:51:36;;;;;;;5.7;4.7;;;;;;;;;;;;;
2023/06/23 13:54:04;;;;;;;5.3;4.8;;;;;;;;;;;;;
2023/06/23 13:56:28;;;;;;;5.7;4.5;;;;;;;;;;;;;
2023/06/23 13:58:54;;;;;;;5.8;4.6;;;;;;;;;;;;;
2023/06/23 14:01:20;;;;;;;6.2;4.5;;;;;;;;;;;;;
2023/06/23 14:03:45;;;;;;;5.4;4.8;;;;;;;;;;;;;
2023/06/23 14:06:10;;;;;;;6.7;5.1;;;;;;;;;;;;;
2023/06/23 14:08:35;;;;;;;5.7;4.9;;;;;;;;;;;;;
2023/06/23 14:11:00;;;;;;;4.9;4.4;;;;;;;;;;;;;
2023/06/23 14:13:25;;;;;;;6.3;4.6;;;;;;;;;;;;;
2023/06/23 14:15:51;;;;;;;6.6;4.7;;;;;;;;;;;;;
2023/06/23 14:18:16;;;;;;;6.2;5.4;;;;;;;;;;;;;
2023/06/23 14:20:44;;;;;;;10.9;6.2;;;;;;;;;;;;;
2023/06/23 14:23:08;;;;;;;7.2;5.1;;;;;;;;;;;;;
2023/06/23 14:25:34;;;;;;;6.3;4.9;;;;;;;;;;;;;
2023/06/23 14:27:59;;;;;;;5.5;5;;;;;;;;;;;;;
2023/06/23 14:30:25;;;;;;;5.8;5;;;;;;;;;;;;;
2023/06/23 14:32:50;;;;;;;5.9;4.7;;;;;;;;;;;;;
2023/06/23 14:35:15;;;;;;;5.6;5;;;;;;;;;;;;;
2023/06/23 14:37:40;;;;;;;7.1;5.4;;;;;;;;;;;;;
2023/06/23 14:40:06;;;;;;;6.5;5.1;;;;;;;;;;;;;
2023/06/23 14:42:31;;;;;;;6.3;4.8;;;;;;;;;;;;;
2023/06/23 14:44:56;;;;;;;5.6;4.5;;;;;;;;;;;;;
2023/06/23 14:47:21;;;;;;;6.1;4.8;;;;;;;;;;;;;
2023/06/23 14:49:46;;;;;;;6.9;5.3;;;;;;;;;;;;;
2023/06/23 14:52:13;;;;;;;8.6;5.3;;;;;;;;;;;;;
2023/06/23 14:54:38;;;;;;;6.4;4.7;;;;;;;;;;;;;
2023/06/23 14:57:03;;;;;;;5;4.5;;;;;;;;;;;;;
2023/06/23 14:59:29;;;;;;;6.6;5;;;;;;;;;;;;;
2023/06/23 15:01:56;;;;;;;6.8;5;;;;;;;;;;;;;
2023/06/23 15:04:21;;;;;;;5;4.5;;;;;;;;;;;;;
2023/06/23 15:06:51;;;;;;;5.4;4.8;;;;;;;;;;;;;
2023/06/23 15:09:13;;;;;;;5.5;4.5;;;;;;;;;;;;;
2023/06/23 15:11:38;;;;;;;5.8;4.7;;;;;;;;;;;;;
2023/06/23 15:14:03;;;;;;;6;4.7;;;;;;;;;;;;;
2023/06/23 15:16:29;;;;;;;5.7;4.7;;;;;;;;;;;;;
2023/06/23 15:18:54;;;;;;;7.5;5.3;;;;;;;;;;;;;
2023/06/23 15:21:21;;;;;;;6.3;5.1;;;;;;;;;;;;;
2023/06/23 15:23:46;;;;;;;5.8;4.8;;;;;;;;;;;;;
2023/06/23 15:26:11;;;;;;;10.7;5.6;;;;;;;;;;;;;
2023/06/23 15:28:36;;;;;;;9.9;5.2;;;;;;;;;;;;;
2023/06/23 15:31:03;;;;;;;8.2;5;;;;;;;;;;;;;
2023/06/23 15:33:29;;;;;;;5.8;4.9;;;;;;;;;;;;;
2023/06/23 15:35:54;;;;;;;5.9;4.8;;;;;;;;;;;;;
2023/06/23 15:38:19;;;;;;;6.1;4.6;;;;;;;;;;;;;
2023/06/23 15:40:46;;;;;;;5.8;4.3;;;;;;;;;;;;;
2023/06/23 15:43:11;;;;;;;6.4;4.5;;;;;;;;;;;;;
2023/06/23 15:45:36;;;;;;;6.6;4.9;;;;;;;;;;;;;
2023/06/23 15:48:01;;;;;;;8;4.6;;;;;;;;;;;;;
2023/06/23 15:50:28;;;;;;;5.2;4.6;;;;;;;;;;;;;
2023/06/23 15:52:53;;;;;;;5.5;4.5;;;;;;;;;;;;;
2023/06/23 15:55:21;;;;;;;5.4;4.7;;;;;;;;;;;;;
2023/06/23 15:57:46;;;;;;;5.6;4.4;;;;;;;;;;;;;
2023/06/23 16:00:11;;;;;;;6.3;4.7;;;;;;;;;;;;;
2023/06/23 16:02:37;;;;;;;6.1;4.7;;;;;;;;;;;;;
2023/06/23 16:05:05;;;;;;;5.6;4.7;;;;;;;;;;;;;
2023/06/23 16:07:30;;;;;;;6;4.5;;;;;;;;;;;;;
2023/06/23 16:09:56;;;;;;;5.6;4.5;;;;;;;;;;;;;
2023/06/23 16:12:20;;;;;;;7.5;4.8;;;;;;;;;;;;;
2023/06/23 16:14:46;;;;;;;5.3;4.2;;;;;;;;;;;;;
2023/06/23 16:17:11;;;;;;;4.8;4.3;;;;;;;;;;;;;
2023/06/23 16:19:36;;;;;;;5.9;4.9;;;;;;;;;;;;;
2023/06/23 16:22:01;;;;;;;8.2;4.7;;;;;;;;;;;;;
2023/06/23 16:24:26;;;;;;;6.3;4.6;;;;;;;;;;;;;
2023/06/23 16:26:52;;;;;;;5.1;4;;;;;;;;;;;;;
2023/06/23 16:29:17;;;;;;;5.5;4.3;;;;;;;;;;;;;
2023/06/23 16:31:42;;;;;;;5.9;4.2;;;;;;;;;;;;;
2023/06/23 16:34:07;;;;;;;6.7;4.8;;;;;;;;;;;;;
2023/06/23 16:36:33;;;;;;;7.1;5;;;;;;;;;;;;;
2023/06/23 16:38:58;;;;;;;5.4;4.3;;;;;;;;;;;;;
2023/06/23 16:41:25;;;;;;;4.9;4.3;;;;;;;;;;;;;
2023/06/23 16:43:50;;;;;;;7;5.2;;;;;;;;;;;;;
2023/06/23 16:46:16;;;;;;;8.9;6.1;;;;;;;;;;;;;
2023/06/23 16:48:42;;;;;;;11.4;7.4;;;;;;;;;;;;;
2023/06/23 16:51:07;;;;;;;5.4;4.9;;;;;;;;;;;;;
2023/06/23 16:53:32;;;;;;;6.4;4.3;;;;;;;;;;;;;
2023/06/23 16:56:05;;;;;;;5.4;4.3;;;;;;;;;;;;;
2023/06/23 16:58:24;;;;;;;6;4.4;;;;;;;;;;;;;
2023/06/23 17:00:51;;;;;;;6.2;4.6;;;;;;;;;;;;;
2023/06/23 17:03:16;;;;;;;6;4.3;;;;;;;;;;;;;
2023/06/23 17:05:41;;;;;;;5;4.4;;;;;;;;;;;;;
2023/06/23 17:08:08;;;;;;;6.8;4.9;;;;;;;;;;;;;
2023/06/23 17:10:33;;;;;;;6.7;5.4;;;;;;;;;;;;;
2023/06/23 17:12:58;;;;;;;5.4;4.2;;;;;;;;;;;;;
2023/06/23 17:15:23;;;;;;;6.3;4.6;;;;;;;;;;;;;
2023/06/23 17:17:48;;;;;;;5.6;4.7;;;;;;;;;;;;;
2023/06/23 17:20:15;;;;;;;5.7;5;;;;;;;;;;;;;
2023/06/23 17:22:40;;;;;;;5.9;4.4;;;;;;;;;;;;;
2023/06/23 17:25:09;;;;;;;4.4;4;;;;;;;;;;;;;
2023/06/23 17:27:32;;;;;;;5;4.5;;;;;;;;;;;;;
2023/06/23 17:29:57;;;;;;;5.2;4.6;;;;;;;;;;;;;
2023/06/23 17:32:22;;;;;;;6.7;5.1;;;;;;;;;;;;;
2023/06/23 17:34:48;;;;;;;5.7;5;;;;;;;;;;;;;
2023/06/23 17:37:13;;;;;;;5.6;4.9;;;;;;;;;;;;;
2023/06/23 17:39:38;;;;;;;7.1;5.4;;;;;;;;;;;;;
2023/06/23 17:42:04;;;;;;;5.4;4.7;;;;;;;;;;;;;
2023/06/23 17:44:50;;;;;;;8.3;5.3;;;;;;;;;;;;;
2023/06/23 17:47:15;;;;;;;5.4;4.8;;;;;;;;;;;;;
2023/06/23 17:49:40;;;;;;;5.9;4.2;;;;;;;;;;;;;
2023/06/23 17:52:05;;;;;;;6.7;4.4;;;;;;;;;;;;;
2023/06/23 17:54:30;;;;;;;6.4;4;;;;;;;;;;;;;
2023/06/23 17:56:57;;;;;;;5.2;4.2;;;;;;;;;;;;;
2023/06/23 17:59:22;;;;;;;4.6;4;;;;;;;;;;;;;
2023/06/23 18:02:03;;;;;;;5.1;4.3;;;;;;;;;;;;;
2023/06/23 18:04:28;;;;;;;7.2;4.3;;;;;;;;;;;;;
2023/06/23 18:06:53;;;;;;;4.4;4;;;;;;;;;;;;;
2023/06/23 18:09:18;;;;;;;4.7;4.2;;;;;;;;;;;;;
2023/06/23 18:11:43;;;;;;;4.7;4.1;;;;;;;;;;;;;
2023/06/23 18:14:09;;;;;;;5.2;4.2;;;;;;;;;;;;;
2023/06/23 18:16:34;;;;;;;5.2;4.5;;;;;;;;;;;;;
2023/06/23 18:19:00;;;;;;;5.8;4.1;;;;;;;;;;;;;
2023/06/23 18:21:26;;;;;;;5.6;4.2;;;;;;;;;;;;;
2023/06/23 18:23:51;;;;;;;5.5;4.3;;;;;;;;;;;;;
2023/06/23 18:26:16;;;;;;;5.7;4.1;;;;;;;;;;;;;
2023/06/23 18:28:41;;;;;;;4.9;4.4;;;;;;;;;;;;;
2023/06/23 18:31:06;;;;;;;4.4;4;;;;;;;;;;;;;
2023/06/23 18:33:31;;;;;;;6.4;4.5;;;;;;;;;;;;;
2023/06/23 18:35:56;;;;;;;5.1;4.1;;;;;;;;;;;;;